sensor_id;sensor_type;location;lat;lon;timestamp;temperature;humidity
12602;DHT22;30282;16.436;99.370;2023-08-12T00:00:47;26.10;99.90
12602;DHT22;30282;16.436;99.370;2023-08-12T00:03:16;26.00;99.90
12602;DHT22;30282;16.436;99.370;2023-08-12T00:05:48;26.00;99.90
12602;DHT22;30282;16.436;99.370;2023-08-12T00:08:17;26.00;99.90
12602;DHT22;30282;16.436;99.370;2023-08-12T00:10:46;26.00;99.90
12602;DHT22;30282;16.436;99.370;2023-08-12T00:13:15;26.10;99.90
12602;DHT22;30282;16.436;99.370;2023-08-12T00:15:44;26.10;99.90
12602;DHT22;30282;16.436;99.370;2023-08-12T00:18:13;26.10;99.90
12602;DHT22;30282;16.436;99.370;2023-08-12T00:20:44;26.10;99.90
12602;DHT22;30282;16.436;99.370;2023-08-12T00:23:14;26.10;99.90
12602;DHT22;30282;16.436;99.370;2023-08-12T00:25:43;26.10;99.90
12602;DHT22;30282;16.436;99.370;2023-08-12T00:28:12;26.10;99.90
12602;DHT22;30282;16.436;99.370;2023-08-12T00:30:41;26.10;99.90
12602;DHT22;30282;16.436;99.370;2023-08-12T00:33:10;26.20;99.90
12602;DHT22;30282;16.436;99.370;2023-08-12T00:35:39;26.30;99.90
12602;DHT22;30282;16.436;99.370;2023-08-12T00:38:08;26.30;99.90
12602;DHT22;30282;16.436;99.370;2023-08-12T00:40:39;26.40;99.90
12602;DHT22;30282;16.436;99.370;2023-08-12T00:43:08;26.30;99.90
12602;DHT22;30282;16.436;99.370;2023-08-12T00:45:37;26.30;99.90
12602;DHT22;30282;16.436;99.370;2023-08-12T00:48:08;26.40;99.90
12602;DHT22;30282;16.436;99.370;2023-08-12T00:50:37;26.40;99.90
12602;DHT22;30282;16.436;99.370;2023-08-12T00:53:08;26.50;99.90
12602;DHT22;30282;16.436;99.370;2023-08-12T00:55:39;26.60;99.90
12602;DHT22;30282;16.436;99.370;2023-08-12T00:58:08;26.60;99.90
12602;DHT22;30282;16.436;99.370;2023-08-12T01:00:38;26.60;99.90
12602;DHT22;30282;16.436;99.370;2023-08-12T01:03:07;26.60;99.90
12602;DHT22;30282;16.436;99.370;2023-08-12T01:05:36;26.70;99.90
12602;DHT22;30282;16.436;99.370;2023-08-12T01:08:06;26.80;99.90
12602;DHT22;30282;16.436;99.370;2023-08-12T01:10:39;26.80;99.90
12602;DHT22;30282;16.436;99.370;2023-08-12T01:13:23;26.90;99.90
12602;DHT22;30282;16.436;99.370;2023-08-12T01:15:56;26.90;99.90
12602;DHT22;30282;16.436;99.370;2023-08-12T01:18:26;27.00;99.90
12602;DHT22;30282;16.436;99.370;2023-08-12T01:20:56;27.00;99.90
12602;DHT22;30282;16.436;99.370;2023-08-12T01:23:29;27.00;99.90
12602;DHT22;30282;16.436;99.370;2023-08-12T01:25:58;27.00;99.90
12602;DHT22;30282;16.436;99.370;2023-08-12T01:28:27;27.10;99.90
12602;DHT22;30282;16.436;99.370;2023-08-12T01:30:59;27.20;99.90
12602;DHT22;30282;16.436;99.370;2023-08-12T01:33:46;27.20;99.90
12602;DHT22;30282;16.436;99.370;2023-08-12T01:36:20;27.20;99.90
12602;DHT22;30282;16.436;99.370;2023-08-12T01:38:52;27.20;99.90
12602;DHT22;30282;16.436;99.370;2023-08-12T01:41:22;27.30;99.90
12602;DHT22;30282;16.436;99.370;2023-08-12T01:43:51;27.40;99.90
12602;DHT22;30282;16.436;99.370;2023-08-12T01:46:22;27.50;99.90
12602;DHT22;30282;16.436;99.370;2023-08-12T01:48:51;27.60;99.90
12602;DHT22;30282;16.436;99.370;2023-08-12T01:51:20;27.60;99.90
12602;DHT22;30282;16.436;99.370;2023-08-12T01:53:52;27.60;99.90
12602;DHT22;30282;16.436;99.370;2023-08-12T01:56:23;27.60;99.90
12602;DHT22;30282;16.436;99.370;2023-08-12T01:58:52;27.60;99.90
12602;DHT22;30282;16.436;99.370;2023-08-12T02:01:21;27.60;99.90
12602;DHT22;30282;16.436;99.370;2023-08-12T02:03:50;27.60;99.90
12602;DHT22;30282;16.436;99.370;2023-08-12T02:06:20;27.70;99.90
12602;DHT22;30282;16.436;99.370;2023-08-12T02:08:52;27.80;99.90
12602;DHT22;30282;16.436;99.370;2023-08-12T02:11:21;27.90;99.90
12602;DHT22;30282;16.436;99.370;2023-08-12T02:13:50;27.90;99.90
12602;DHT22;30282;16.436;99.370;2023-08-12T02:16:20;28.00;99.90
12602;DHT22;30282;16.436;99.370;2023-08-12T02:18:49;28.10;99.90
12602;DHT22;30282;16.436;99.370;2023-08-12T02:21:18;28.10;99.90
12602;DHT22;30282;16.436;99.370;2023-08-12T02:23:47;28.20;99.90
12602;DHT22;30282;16.436;99.370;2023-08-12T02:26:18;28.40;99.90
12602;DHT22;30282;16.436;99.370;2023-08-12T02:28:47;28.50;99.90
12602;DHT22;30282;16.436;99.370;2023-08-12T02:31:16;28.50;99.90
12602;DHT22;30282;16.436;99.370;2023-08-12T02:33:45;28.50;99.90
12602;DHT22;30282;16.436;99.370;2023-08-12T02:36:14;28.60;99.90
12602;DHT22;30282;16.436;99.370;2023-08-12T02:38:43;28.60;99.90
12602;DHT22;30282;16.436;99.370;2023-08-12T02:41:12;28.60;99.90
12602;DHT22;30282;16.436;99.370;2023-08-12T02:43:43;28.60;99.90
12602;DHT22;30282;16.436;99.370;2023-08-12T02:46:12;28.70;99.90
12602;DHT22;30282;16.436;99.370;2023-08-12T02:48:42;28.70;99.90
12602;DHT22;30282;16.436;99.370;2023-08-12T02:51:11;28.80;99.90
12602;DHT22;30282;16.436;99.370;2023-08-12T02:53:40;28.90;99.90
12602;DHT22;30282;16.436;99.370;2023-08-12T02:56:09;28.90;99.90
12602;DHT22;30282;16.436;99.370;2023-08-12T02:58:38;29.00;99.90
12602;DHT22;30282;16.436;99.370;2023-08-12T03:01:09;29.10;99.90
12602;DHT22;30282;16.436;99.370;2023-08-12T03:03:38;29.20;99.90
12602;DHT22;30282;16.436;99.370;2023-08-12T03:06:07;29.20;99.90
12602;DHT22;30282;16.436;99.370;2023-08-12T03:08:36;29.30;99.90
12602;DHT22;30282;16.436;99.370;2023-08-12T03:11:05;29.40;99.90
12602;DHT22;30282;16.436;99.370;2023-08-12T03:13:34;29.40;99.90
12602;DHT22;30282;16.436;99.370;2023-08-12T03:16:03;29.50;99.90
12602;DHT22;30282;16.436;99.370;2023-08-12T03:18:34;29.60;99.90
12602;DHT22;30282;16.436;99.370;2023-08-12T03:21:06;29.60;99.90
12602;DHT22;30282;16.436;99.370;2023-08-12T03:23:36;29.70;99.90
12602;DHT22;30282;16.436;99.370;2023-08-12T03:26:05;29.60;99.90
12602;DHT22;30282;16.436;99.370;2023-08-12T03:28:34;29.60;99.90
12602;DHT22;30282;16.436;99.370;2023-08-12T03:31:04;29.70;99.90
12602;DHT22;30282;16.436;99.370;2023-08-12T03:33:34;29.70;99.90
12602;DHT22;30282;16.436;99.370;2023-08-12T03:36:04;29.70;99.90
12602;DHT22;30282;16.436;99.370;2023-08-12T03:38:33;29.80;99.90
12602;DHT22;30282;16.436;99.370;2023-08-12T03:41:05;29.90;99.90
12602;DHT22;30282;16.436;99.370;2023-08-12T03:43:34;30.10;99.90
12602;DHT22;30282;16.436;99.370;2023-08-12T03:46:07;30.10;99.90
12602;DHT22;30282;16.436;99.370;2023-08-12T03:48:37;30.10;99.90
12602;DHT22;30282;16.436;99.370;2023-08-12T03:51:09;30.20;99.90
12602;DHT22;30282;16.436;99.370;2023-08-12T03:53:38;30.10;99.90
12602;DHT22;30282;16.436;99.370;2023-08-12T03:56:07;30.10;99.90
12602;DHT22;30282;16.436;99.370;2023-08-12T03:58:36;30.10;99.90
12602;DHT22;30282;16.436;99.370;2023-08-12T04:01:05;30.20;99.90
12602;DHT22;30282;16.436;99.370;2023-08-12T04:03:36;30.20;99.90
12602;DHT22;30282;16.436;99.370;2023-08-12T04:06:05;30.20;99.90
12602;DHT22;30282;16.436;99.370;2023-08-12T04:08:36;30.30;99.90
12602;DHT22;30282;16.436;99.370;2023-08-12T04:11:05;30.30;99.90
12602;DHT22;30282;16.436;99.370;2023-08-12T04:13:34;30.30;99.90
12602;DHT22;30282;16.436;99.370;2023-08-12T04:16:03;30.40;99.90
12602;DHT22;30282;16.436;99.370;2023-08-12T04:18:32;30.50;99.90
12602;DHT22;30282;16.436;99.370;2023-08-12T04:21:03;30.50;99.90
12602;DHT22;30282;16.436;99.370;2023-08-12T04:23:32;30.50;99.90
12602;DHT22;30282;16.436;99.370;2023-08-12T04:26:01;30.60;99.90
12602;DHT22;30282;16.436;99.370;2023-08-12T04:28:30;30.70;99.90
12602;DHT22;30282;16.436;99.370;2023-08-12T04:31:05;30.90;99.90
12602;DHT22;30282;16.436;99.370;2023-08-12T04:33:35;31.00;99.90
12602;DHT22;30282;16.436;99.370;2023-08-12T04:36:06;31.10;99.90
12602;DHT22;30282;16.436;99.370;2023-08-12T04:38:35;31.30;99.90
12602;DHT22;30282;16.436;99.370;2023-08-12T04:41:06;31.40;99.90
12602;DHT22;30282;16.436;99.370;2023-08-12T04:43:35;31.40;99.90
12602;DHT22;30282;16.436;99.370;2023-08-12T04:46:04;31.50;99.90
12602;DHT22;30282;16.436;99.370;2023-08-12T04:48:32;31.40;99.90
12602;DHT22;30282;16.436;99.370;2023-08-12T04:51:02;31.40;99.90
12602;DHT22;30282;16.436;99.370;2023-08-12T04:53:33;31.30;99.90
12602;DHT22;30282;16.436;99.370;2023-08-12T04:56:02;31.30;99.90
12602;DHT22;30282;16.436;99.370;2023-08-12T04:58:31;31.20;99.90
12602;DHT22;30282;16.436;99.370;2023-08-12T05:01:01;31.30;99.90
12602;DHT22;30282;16.436;99.370;2023-08-12T05:03:34;31.40;99.90
12602;DHT22;30282;16.436;99.370;2023-08-12T05:06:07;31.50;99.90
12602;DHT22;30282;16.436;99.370;2023-08-12T05:08:37;31.60;99.90
12602;DHT22;30282;16.436;99.370;2023-08-12T05:11:07;31.80;99.90
12602;DHT22;30282;16.436;99.370;2023-08-12T05:13:36;31.90;99.90
12602;DHT22;30282;16.436;99.370;2023-08-12T05:16:05;32.00;99.90
12602;DHT22;30282;16.436;99.370;2023-08-12T05:18:34;32.20;99.90
12602;DHT22;30282;16.436;99.370;2023-08-12T05:21:03;32.30;99.90
12602;DHT22;30282;16.436;99.370;2023-08-12T05:23:32;32.50;99.90
12602;DHT22;30282;16.436;99.370;2023-08-12T05:26:02;32.60;99.90
12602;DHT22;30282;16.436;99.370;2023-08-12T05:28:31;32.70;99.90
12602;DHT22;30282;16.436;99.370;2023-08-12T05:31:00;32.60;99.90
12602;DHT22;30282;16.436;99.370;2023-08-12T05:33:29;32.50;99.90
12602;DHT22;30282;16.436;99.370;2023-08-12T05:35:59;32.50;99.90
12602;DHT22;30282;16.436;99.370;2023-08-12T05:38:28;32.50;99.90
12602;DHT22;30282;16.436;99.370;2023-08-12T05:40:57;32.50;99.90
12602;DHT22;30282;16.436;99.370;2023-08-12T05:43:28;32.50;99.90
12602;DHT22;30282;16.436;99.370;2023-08-12T05:45:57;32.30;99.90
12602;DHT22;30282;16.436;99.370;2023-08-12T05:48:26;32.30;99.90
12602;DHT22;30282;16.436;99.370;2023-08-12T05:50:55;32.20;99.90
12602;DHT22;30282;16.436;99.370;2023-08-12T05:53:24;32.10;99.90
12602;DHT22;30282;16.436;99.370;2023-08-12T05:55:53;32.00;99.90
12602;DHT22;30282;16.436;99.370;2023-08-12T05:58:22;31.90;99.90
12602;DHT22;30282;16.436;99.370;2023-08-12T06:00:53;31.80;99.90
12602;DHT22;30282;16.436;99.370;2023-08-12T06:03:22;31.80;99.90
12602;DHT22;30282;16.436;99.370;2023-08-12T06:05:52;32.00;99.90
12602;DHT22;30282;16.436;99.370;2023-08-12T06:08:21;32.00;99.90
12602;DHT22;30282;16.436;99.370;2023-08-12T06:10:50;32.00;99.90
12602;DHT22;30282;16.436;99.370;2023-08-12T06:13:19;32.00;99.90
12602;DHT22;30282;16.436;99.370;2023-08-12T06:15:48;32.10;99.90
12602;DHT22;30282;16.436;99.370;2023-08-12T06:18:18;32.10;99.90
12602;DHT22;30282;16.436;99.370;2023-08-12T06:20:47;32.10;99.90
12602;DHT22;30282;16.436;99.370;2023-08-12T06:23:17;32.10;99.90
12602;DHT22;30282;16.436;99.370;2023-08-12T06:25:46;32.00;99.90
12602;DHT22;30282;16.436;99.370;2023-08-12T06:28:17;31.90;99.90
12602;DHT22;30282;16.436;99.370;2023-08-12T06:30:49;31.90;99.90
12602;DHT22;30282;16.436;99.370;2023-08-12T06:33:19;32.00;99.90
12602;DHT22;30282;16.436;99.370;2023-08-12T06:35:49;32.10;99.90
12602;DHT22;30282;16.436;99.370;2023-08-12T06:38:20;32.10;99.90
12602;DHT22;30282;16.436;99.370;2023-08-12T06:40:49;32.10;99.90
12602;DHT22;30282;16.436;99.370;2023-08-12T06:43:20;32.00;99.90
12602;DHT22;30282;16.436;99.370;2023-08-12T06:45:51;32.00;99.90
12602;DHT22;30282;16.436;99.370;2023-08-12T06:48:21;32.00;99.90
12602;DHT22;30282;16.436;99.370;2023-08-12T06:50:54;32.00;99.90
12602;DHT22;30282;16.436;99.370;2023-08-12T06:53:24;32.10;99.90
12602;DHT22;30282;16.436;99.370;2023-08-12T06:55:53;32.10;99.90
12602;DHT22;30282;16.436;99.370;2023-08-12T06:58:22;32.10;99.90
12602;DHT22;30282;16.436;99.370;2023-08-12T07:00:51;32.10;99.90
12602;DHT22;30282;16.436;99.370;2023-08-12T07:03:22;32.10;99.90
12602;DHT22;30282;16.436;99.370;2023-08-12T07:05:51;32.00;99.90
12602;DHT22;30282;16.436;99.370;2023-08-12T07:08:20;32.00;99.90
12602;DHT22;30282;16.436;99.370;2023-08-12T07:10:49;32.00;99.90
12602;DHT22;30282;16.436;99.370;2023-08-12T07:13:18;32.00;99.90
12602;DHT22;30282;16.436;99.370;2023-08-12T07:15:47;31.90;99.90
12602;DHT22;30282;16.436;99.370;2023-08-12T07:18:16;32.00;99.90
12602;DHT22;30282;16.436;99.370;2023-08-12T07:20:47;32.00;99.90
12602;DHT22;30282;16.436;99.370;2023-08-12T07:23:16;32.00;99.90
12602;DHT22;30282;16.436;99.370;2023-08-12T07:25:46;32.10;99.90
12602;DHT22;30282;16.436;99.370;2023-08-12T07:28:15;32.10;99.90
12602;DHT22;30282;16.436;99.370;2023-08-12T07:30:44;32.30;99.90
12602;DHT22;30282;16.436;99.370;2023-08-12T07:33:13;32.30;99.90
12602;DHT22;30282;16.436;99.370;2023-08-12T07:35:42;32.40;99.90
12602;DHT22;30282;16.436;99.370;2023-08-12T07:38:13;32.50;99.90
12602;DHT22;30282;16.436;99.370;2023-08-12T07:40:42;32.70;99.90
12602;DHT22;30282;16.436;99.370;2023-08-12T07:43:11;32.70;99.90
12602;DHT22;30282;16.436;99.370;2023-08-12T07:45:40;32.70;99.90
12602;DHT22;30282;16.436;99.370;2023-08-12T07:48:09;32.70;99.90
12602;DHT22;30282;16.436;99.370;2023-08-12T07:50:38;32.60;99.90
12602;DHT22;30282;16.436;99.370;2023-08-12T07:53:07;32.60;99.90
12602;DHT22;30282;16.436;99.370;2023-08-12T07:55:37;32.50;99.90
12602;DHT22;30282;16.436;99.370;2023-08-12T07:58:06;32.40;99.90
12602;DHT22;30282;16.436;99.370;2023-08-12T08:00:35;32.40;99.90
12602;DHT22;30282;16.436;99.370;2023-08-12T08:03:04;32.50;99.90
12602;DHT22;30282;16.436;99.370;2023-08-12T08:05:33;32.60;99.90
12602;DHT22;30282;16.436;99.370;2023-08-12T08:08:03;32.60;99.90
12602;DHT22;30282;16.436;99.370;2023-08-12T08:10:32;32.60;99.90
12602;DHT22;30282;16.436;99.370;2023-08-12T08:13:03;32.70;99.90
12602;DHT22;30282;16.436;99.370;2023-08-12T08:15:32;32.70;99.90
12602;DHT22;30282;16.436;99.370;2023-08-12T08:18:01;32.80;99.90
12602;DHT22;30282;16.436;99.370;2023-08-12T08:20:31;32.80;99.90
12602;DHT22;30282;16.436;99.370;2023-08-12T08:23:00;32.80;99.90
12602;DHT22;30282;16.436;99.370;2023-08-12T08:25:32;32.90;99.90
12602;DHT22;30282;16.436;99.370;2023-08-12T08:28:02;32.80;99.90
12602;DHT22;30282;16.436;99.370;2023-08-12T08:30:31;32.90;99.90
12602;DHT22;30282;16.436;99.370;2023-08-12T08:33:00;32.90;99.90
12602;DHT22;30282;16.436;99.370;2023-08-12T08:35:30;32.90;99.90
12602;DHT22;30282;16.436;99.370;2023-08-12T08:37:59;32.90;99.90
12602;DHT22;30282;16.436;99.370;2023-08-12T08:40:28;33.00;99.90
12602;DHT22;30282;16.436;99.370;2023-08-12T08:43:03;33.10;99.90
12602;DHT22;30282;16.436;99.370;2023-08-12T08:45:33;33.10;99.90
12602;DHT22;30282;16.436;99.370;2023-08-12T08:48:03;33.10;99.90
12602;DHT22;30282;16.436;99.370;2023-08-12T08:50:34;33.10;99.90
12602;DHT22;30282;16.436;99.370;2023-08-12T08:53:05;33.00;99.90
12602;DHT22;30282;16.436;99.370;2023-08-12T08:55:35;33.10;99.90
12602;DHT22;30282;16.436;99.370;2023-08-12T08:58:06;33.10;99.90
12602;DHT22;30282;16.436;99.370;2023-08-12T09:00:36;33.10;99.90
12602;DHT22;30282;16.436;99.370;2023-08-12T09:03:07;33.00;99.90
12602;DHT22;30282;16.436;99.370;2023-08-12T09:05:37;32.90;99.90
12602;DHT22;30282;16.436;99.370;2023-08-12T09:08:07;32.80;99.90
12602;DHT22;30282;16.436;99.370;2023-08-12T09:10:39;32.70;99.90
12602;DHT22;30282;16.436;99.370;2023-08-12T09:13:10;32.70;99.90
12602;DHT22;30282;16.436;99.370;2023-08-12T09:15:40;32.70;99.90
12602;DHT22;30282;16.436;99.370;2023-08-12T09:18:09;32.70;99.90
12602;DHT22;30282;16.436;99.370;2023-08-12T09:20:38;32.80;99.90
12602;DHT22;30282;16.436;99.370;2023-08-12T09:23:07;32.80;99.90
12602;DHT22;30282;16.436;99.370;2023-08-12T09:25:42;32.80;99.90
12602;DHT22;30282;16.436;99.370;2023-08-12T09:28:13;32.90;99.90
12602;DHT22;30282;16.436;99.370;2023-08-12T09:30:42;32.90;99.90
12602;DHT22;30282;16.436;99.370;2023-08-12T09:33:25;32.90;99.90
12602;DHT22;30282;16.436;99.370;2023-08-12T09:35:55;33.00;99.90
12602;DHT22;30282;16.436;99.370;2023-08-12T09:38:26;32.90;99.90
12602;DHT22;30282;16.436;99.370;2023-08-12T09:40:56;32.90;99.90
12602;DHT22;30282;16.436;99.370;2023-08-12T09:43:28;33.00;99.90
12602;DHT22;30282;16.436;99.370;2023-08-12T09:45:57;33.00;99.90
12602;DHT22;30282;16.436;99.370;2023-08-12T09:48:27;33.10;99.90
12602;DHT22;30282;16.436;99.370;2023-08-12T09:50:57;33.10;99.90
12602;DHT22;30282;16.436;99.370;2023-08-12T09:53:27;33.10;99.90
12602;DHT22;30282;16.436;99.370;2023-08-12T09:55:57;33.10;99.90
12602;DHT22;30282;16.436;99.370;2023-08-12T09:58:32;33.20;99.90
12602;DHT22;30282;16.436;99.370;2023-08-12T10:01:03;33.20;99.90
12602;DHT22;30282;16.436;99.370;2023-08-12T10:03:34;33.20;99.90
12602;DHT22;30282;16.436;99.370;2023-08-12T10:06:03;33.20;99.90
12602;DHT22;30282;16.436;99.370;2023-08-12T10:08:35;33.40;99.90
12602;DHT22;30282;16.436;99.370;2023-08-12T10:11:04;33.40;99.90
12602;DHT22;30282;16.436;99.370;2023-08-12T10:13:37;33.40;99.90
12602;DHT22;30282;16.436;99.370;2023-08-12T10:16:06;33.40;99.90
12602;DHT22;30282;16.436;99.370;2023-08-12T10:18:37;33.40;99.90
12602;DHT22;30282;16.436;99.370;2023-08-12T10:21:09;33.40;99.90
12602;DHT22;30282;16.436;99.370;2023-08-12T10:23:41;33.30;99.90
12602;DHT22;30282;16.436;99.370;2023-08-12T10:26:10;33.30;99.90
12602;DHT22;30282;16.436;99.370;2023-08-12T10:28:41;33.20;99.90
12602;DHT22;30282;16.436;99.370;2023-08-12T10:31:12;33.10;99.90
12602;DHT22;30282;16.436;99.370;2023-08-12T10:33:41;33.10;99.90
12602;DHT22;30282;16.436;99.370;2023-08-12T10:36:11;33.00;99.90
12602;DHT22;30282;16.436;99.370;2023-08-12T10:38:40;32.90;99.90
12602;DHT22;30282;16.436;99.370;2023-08-12T10:41:16;32.80;99.90
12602;DHT22;30282;16.436;99.370;2023-08-12T10:43:58;32.70;99.90
12602;DHT22;30282;16.436;99.370;2023-08-12T10:46:32;32.60;99.90
12602;DHT22;30282;16.436;99.370;2023-08-12T10:49:04;32.50;99.90
12602;DHT22;30282;16.436;99.370;2023-08-12T10:51:45;32.50;99.90
12602;DHT22;30282;16.436;99.370;2023-08-12T10:54:15;32.50;99.90
12602;DHT22;30282;16.436;99.370;2023-08-12T10:57:09;32.40;99.90
12602;DHT22;30282;16.436;99.370;2023-08-12T10:59:57;32.40;99.90
12602;DHT22;30282;16.436;99.370;2023-08-12T11:02:31;32.50;99.90
12602;DHT22;30282;16.436;99.370;2023-08-12T11:05:02;32.50;99.90
12602;DHT22;30282;16.436;99.370;2023-08-12T11:07:38;32.50;99.90
12602;DHT22;30282;16.436;99.370;2023-08-12T11:10:12;32.40;99.90
12602;DHT22;30282;16.436;99.370;2023-08-12T11:12:46;32.30;99.90
12602;DHT22;30282;16.436;99.370;2023-08-12T11:15:18;32.30;99.90
12602;DHT22;30282;16.436;99.370;2023-08-12T11:17:48;32.30;99.90
12602;DHT22;30282;16.436;99.370;2023-08-12T11:20:17;32.20;99.90
12602;DHT22;30282;16.436;99.370;2023-08-12T11:22:47;32.10;99.90
12602;DHT22;30282;16.436;99.370;2023-08-12T11:25:16;32.20;99.90
12602;DHT22;30282;16.436;99.370;2023-08-12T11:27:48;32.20;99.90
12602;DHT22;30282;16.436;99.370;2023-08-12T11:30:20;32.10;99.90
12602;DHT22;30282;16.436;99.370;2023-08-12T11:32:50;32.10;99.90
12602;DHT22;30282;16.436;99.370;2023-08-12T11:35:20;32.10;99.90
12602;DHT22;30282;16.436;99.370;2023-08-12T11:37:50;32.00;99.90
12602;DHT22;30282;16.436;99.370;2023-08-12T11:40:23;31.90;99.90
12602;DHT22;30282;16.436;99.370;2023-08-12T11:42:53;31.80;99.90
12602;DHT22;30282;16.436;99.370;2023-08-12T11:45:25;31.80;99.90
12602;DHT22;30282;16.436;99.370;2023-08-12T11:47:55;31.70;99.90
12602;DHT22;30282;16.436;99.370;2023-08-12T11:50:25;31.70;99.90
12602;DHT22;30282;16.436;99.370;2023-08-12T11:52:56;31.60;99.90
12602;DHT22;30282;16.436;99.370;2023-08-12T11:55:25;31.60;99.90
12602;DHT22;30282;16.436;99.370;2023-08-12T11:57:54;31.50;99.90
12602;DHT22;30282;16.436;99.370;2023-08-12T12:00:26;31.50;99.90
12602;DHT22;30282;16.436;99.370;2023-08-12T12:02:56;31.50;99.90
12602;DHT22;30282;16.436;99.370;2023-08-12T12:05:27;31.50;99.90
12602;DHT22;30282;16.436;99.370;2023-08-12T12:07:58;31.50;99.90
12602;DHT22;30282;16.436;99.370;2023-08-12T12:10:28;31.40;99.90
12602;DHT22;30282;16.436;99.370;2023-08-12T12:12:58;31.40;99.90
12602;DHT22;30282;16.436;99.370;2023-08-12T12:15:29;31.30;99.90
12602;DHT22;30282;16.436;99.370;2023-08-12T12:17:59;31.30;99.90
12602;DHT22;30282;16.436;99.370;2023-08-12T12:20:28;31.20;99.90
12602;DHT22;30282;16.436;99.370;2023-08-12T12:22:57;31.20;99.90
12602;DHT22;30282;16.436;99.370;2023-08-12T12:25:26;31.10;99.90
12602;DHT22;30282;16.436;99.370;2023-08-12T12:27:55;31.00;99.90
12602;DHT22;30282;16.436;99.370;2023-08-12T12:30:24;31.00;99.90
12602;DHT22;30282;16.436;99.370;2023-08-12T12:32:55;30.70;99.90
12602;DHT22;30282;16.436;99.370;2023-08-12T12:35:24;30.70;99.90
12602;DHT22;30282;16.436;99.370;2023-08-12T12:37:56;30.70;99.90
12602;DHT22;30282;16.436;99.370;2023-08-12T12:40:27;30.70;99.90
12602;DHT22;30282;16.436;99.370;2023-08-12T12:42:56;30.70;99.90
12602;DHT22;30282;16.436;99.370;2023-08-12T12:45:26;30.50;99.90
12602;DHT22;30282;16.436;99.370;2023-08-12T12:47:56;30.50;99.90
12602;DHT22;30282;16.436;99.370;2023-08-12T12:50:25;30.40;99.90
12602;DHT22;30282;16.436;99.370;2023-08-12T12:52:54;30.30;99.90
12602;DHT22;30282;16.436;99.370;2023-08-12T12:55:23;30.30;99.90
12602;DHT22;30282;16.436;99.370;2023-08-12T12:57:52;30.20;99.90
12602;DHT22;30282;16.436;99.370;2023-08-12T13:00:21;30.20;99.90
12602;DHT22;30282;16.436;99.370;2023-08-12T13:02:50;30.00;99.90
12602;DHT22;30282;16.436;99.370;2023-08-12T13:05:21;30.00;99.90
12602;DHT22;30282;16.436;99.370;2023-08-12T13:07:50;30.00;99.90
12602;DHT22;30282;16.436;99.370;2023-08-12T13:10:19;30.00;99.90
12602;DHT22;30282;16.436;99.370;2023-08-12T13:12:48;29.80;99.90
12602;DHT22;30282;16.436;99.370;2023-08-12T13:15:17;29.70;99.90
12602;DHT22;30282;16.436;99.370;2023-08-12T13:17:46;29.70;99.90
12602;DHT22;30282;16.436;99.370;2023-08-12T13:20:15;29.70;99.90
12602;DHT22;30282;16.436;99.370;2023-08-12T13:22:46;29.80;99.90
12602;DHT22;30282;16.436;99.370;2023-08-12T13:25:15;29.90;99.90
12602;DHT22;30282;16.436;99.370;2023-08-12T13:27:44;29.90;99.90
12602;DHT22;30282;16.436;99.370;2023-08-12T13:30:13;29.90;99.90
12602;DHT22;30282;16.436;99.370;2023-08-12T13:32:42;29.80;99.90
12602;DHT22;30282;16.436;99.370;2023-08-12T13:35:11;29.70;99.90
12602;DHT22;30282;16.436;99.370;2023-08-12T13:37:40;29.60;99.90
12602;DHT22;30282;16.436;99.370;2023-08-12T13:40:11;29.50;99.90
12602;DHT22;30282;16.436;99.370;2023-08-12T13:42:41;29.50;99.90
12602;DHT22;30282;16.436;99.370;2023-08-12T13:45:12;29.50;99.90
12602;DHT22;30282;16.436;99.370;2023-08-12T13:47:41;29.40;99.90
12602;DHT22;30282;16.436;99.370;2023-08-12T13:50:10;29.50;99.90
12602;DHT22;30282;16.436;99.370;2023-08-12T13:52:40;29.50;99.90
12602;DHT22;30282;16.436;99.370;2023-08-12T13:55:11;29.50;99.90
12602;DHT22;30282;16.436;99.370;2023-08-12T13:57:40;29.50;99.90
12602;DHT22;30282;16.436;99.370;2023-08-12T14:00:12;29.50;99.90
12602;DHT22;30282;16.436;99.370;2023-08-12T14:02:41;29.50;99.90
12602;DHT22;30282;16.436;99.370;2023-08-12T14:05:13;29.40;99.90
12602;DHT22;30282;16.436;99.370;2023-08-12T14:07:43;29.40;99.90
12602;DHT22;30282;16.436;99.370;2023-08-12T14:10:13;29.30;99.90
12602;DHT22;30282;16.436;99.370;2023-08-12T14:12:42;29.10;99.90
12602;DHT22;30282;16.436;99.370;2023-08-12T14:15:12;29.10;99.90
12602;DHT22;30282;16.436;99.370;2023-08-12T14:17:41;29.00;99.90
12602;DHT22;30282;16.436;99.370;2023-08-12T14:20:11;28.90;99.90
12602;DHT22;30282;16.436;99.370;2023-08-12T14:22:42;28.80;99.90
12602;DHT22;30282;16.436;99.370;2023-08-12T14:25:14;28.60;99.90
12602;DHT22;30282;16.436;99.370;2023-08-12T14:27:45;28.60;99.90
12602;DHT22;30282;16.436;99.370;2023-08-12T14:30:14;28.70;99.90
12602;DHT22;30282;16.436;99.370;2023-08-12T14:32:43;28.80;99.90
12602;DHT22;30282;16.436;99.370;2023-08-12T14:35:12;28.80;99.90
12602;DHT22;30282;16.436;99.370;2023-08-12T14:37:42;28.90;99.90
12602;DHT22;30282;16.436;99.370;2023-08-12T14:40:13;28.90;99.90
12602;DHT22;30282;16.436;99.370;2023-08-12T14:42:45;29.00;99.90
12602;DHT22;30282;16.436;99.370;2023-08-12T14:45:14;29.00;99.90
12602;DHT22;30282;16.436;99.370;2023-08-12T14:47:44;29.00;99.90
12602;DHT22;30282;16.436;99.370;2023-08-12T14:50:16;29.10;99.90
12602;DHT22;30282;16.436;99.370;2023-08-12T14:52:48;29.10;99.90
12602;DHT22;30282;16.436;99.370;2023-08-12T14:55:19;29.00;99.90
12602;DHT22;30282;16.436;99.370;2023-08-12T14:57:51;29.00;99.90
12602;DHT22;30282;16.436;99.370;2023-08-12T15:00:22;29.00;99.90
12602;DHT22;30282;16.436;99.370;2023-08-12T15:02:51;28.70;99.90
12602;DHT22;30282;16.436;99.370;2023-08-12T15:05:20;28.50;99.90
12602;DHT22;30282;16.436;99.370;2023-08-12T15:07:49;28.50;99.90
12602;DHT22;30282;16.436;99.370;2023-08-12T15:10:21;28.60;99.90
12602;DHT22;30282;16.436;99.370;2023-08-12T15:12:50;28.50;99.90
12602;DHT22;30282;16.436;99.370;2023-08-12T15:15:19;28.50;99.90
12602;DHT22;30282;16.436;99.370;2023-08-12T15:17:48;28.60;99.90
12602;DHT22;30282;16.436;99.370;2023-08-12T15:20:18;28.60;99.90
12602;DHT22;30282;16.436;99.370;2023-08-12T15:22:52;28.70;99.90
12602;DHT22;30282;16.436;99.370;2023-08-12T15:25:23;28.70;99.90
12602;DHT22;30282;16.436;99.370;2023-08-12T15:27:52;28.80;99.90
12602;DHT22;30282;16.436;99.370;2023-08-12T15:30:21;28.90;99.90
12602;DHT22;30282;16.436;99.370;2023-08-12T15:32:51;28.90;99.90